FDX251 KSEA-PANC
Flight info
| Callsign | FDX251 |
|---|---|
| Flight time | N/A |
| Altitude | 36000 |
| Route | JEFPO1 ARRIE FOCHE PRYCE BKA LAIRE JOH WITTI5 |
| Aircraft | B77L/H-SDE1E2E3FGHIJ2J3J4J5M1RWXY/LB1D1 |
Departure
| Time | N/A |
|---|---|
| Airport | Seattle–Tacoma International Airport (KSEA) |
Arrival
| Time | 2026-05-04 06:58 |
|---|---|
| Airport | Ted Stevens Anchorage International Airport (PANC) |
| Time | Latitude | Longitude | Altitude | Speed | Heading |
|---|---|---|---|---|---|
| 2026-05-04 06:33 | 60.62681 | -147.49674 | 33014 ft | 423 kts | 278° |
| 2026-05-04 06:34 | 60.63573 | -147.55344 | 32124 ft | 424 kts | 278° |
| 2026-05-04 06:34 | 60.64479 | -147.61116 | 31225 ft | 427 kts | 279° |
| 2026-05-04 06:34 | 60.65385 | -147.66883 | 30582 ft | 424 kts | 279° |
| 2026-05-04 06:34 | 60.66276 | -147.72562 | 29861 ft | 422 kts | 279° |
| 2026-05-04 06:35 | 60.67170 | -147.78281 | 29146 ft | 420 kts | 279° |
| 2026-05-04 06:36 | 60.73151 | -148.17103 | 24778 ft | 403 kts | 281° |
| 2026-05-04 06:37 | 60.73987 | -148.22603 | 24175 ft | 402 kts | 281° |
| 2026-05-04 06:37 | 60.74815 | -148.28092 | 23537 ft | 402 kts | 281° |
| 2026-05-04 06:37 | 60.75622 | -148.33485 | 22864 ft | 400 kts | 281° |
| 2026-05-04 06:37 | 60.76434 | -148.38930 | 22252 ft | 398 kts | 281° |
| 2026-05-04 06:38 | 60.77230 | -148.44288 | 21666 ft | 395 kts | 281° |
| 2026-05-04 06:38 | 60.78031 | -148.49689 | 21089 ft | 393 kts | 281° |
| 2026-05-04 06:40 | 60.83394 | -148.86322 | 16935 ft | 377 kts | 281° |
| 2026-05-04 06:40 | 60.84141 | -148.91482 | 16390 ft | 374 kts | 281° |
| 2026-05-04 06:40 | 60.84880 | -148.96609 | 15854 ft | 373 kts | 281° |
| 2026-05-04 06:40 | 60.85605 | -149.01650 | 15311 ft | 372 kts | 281° |
| 2026-05-04 06:41 | 60.86336 | -149.06747 | 14778 ft | 371 kts | 281° |
| 2026-05-04 06:41 | 60.87066 | -149.11857 | 14200 ft | 369 kts | 281° |
| 2026-05-04 06:41 | 60.87781 | -149.16863 | 13677 ft | 366 kts | 281° |
| 2026-05-04 06:41 | 60.88498 | -149.21862 | 13056 ft | 362 kts | 283° |
| 2026-05-04 06:42 | 60.89400 | -149.26679 | 12604 ft | 359 kts | 289° |
| 2026-05-04 06:42 | 60.90464 | -149.31293 | 12051 ft | 360 kts | 291° |
| 2026-05-04 06:42 | 60.91580 | -149.35910 | 11473 ft | 358 kts | 291° |
| 2026-05-04 06:44 | 60.98782 | -149.67231 | 8453 ft | 306 kts | 290° |
| 2026-05-04 06:44 | 60.99658 | -149.71123 | 8187 ft | 291 kts | 290° |
| 2026-05-04 06:44 | 61.00597 | -149.74666 | 7963 ft | 280 kts | 304° |
| 2026-05-04 06:45 | 61.02002 | -149.77504 | 7539 ft | 283 kts | 316° |
| 2026-05-04 06:45 | 61.03478 | -149.80178 | 7233 ft | 286 kts | 316° |
| 2026-05-04 06:45 | 61.04961 | -149.82952 | 6954 ft | 288 kts | 315° |
| 2026-05-04 06:45 | 61.06437 | -149.85763 | 6745 ft | 287 kts | 315° |
| 2026-05-04 06:46 | 61.07884 | -149.88539 | 6561 ft | 285 kts | 315° |
| 2026-05-04 06:46 | 61.09332 | -149.91351 | 6307 ft | 281 kts | 311° |
| 2026-05-04 06:46 | 61.10337 | -149.94732 | 5860 ft | 279 kts | 282° |
| 2026-05-04 06:46 | 61.10523 | -149.98681 | 5570 ft | 273 kts | 265° |
| 2026-05-04 06:48 | 61.10155 | -150.25991 | 4530 ft | 275 kts | 265° |
| 2026-05-04 06:48 | 61.10104 | -150.29861 | 4278 ft | 268 kts | 266° |
| 2026-05-04 06:49 | 61.10022 | -150.33671 | 4025 ft | 260 kts | 264° |
| 2026-05-04 06:50 | 61.09565 | -150.57587 | 2243 ft | 218 kts | 278° |
| 2026-05-04 06:51 | 61.10109 | -150.60420 | 1970 ft | 214 kts | 314° |
| 2026-05-04 06:51 | 61.11329 | -150.62047 | 1757 ft | 209 kts | 349° |
| 2026-05-04 06:51 | 61.12761 | -150.62315 | 1602 ft | 205 kts | 1° |
| 2026-05-04 06:51 | 61.14178 | -150.62295 | 1548 ft | 206 kts | 3° |
| 2026-05-04 06:52 | 61.15618 | -150.62240 | 1498 ft | 206 kts | 3° |
| 2026-05-04 06:52 | 61.17048 | -150.62131 | 1488 ft | 203 kts | 11° |
| 2026-05-04 06:52 | 61.18271 | -150.60895 | 1492 ft | 201 kts | 48° |
| 2026-05-04 06:52 | 61.18854 | -150.58304 | 1493 ft | 202 kts | 86° |
| 2026-05-04 06:53 | 61.18531 | -150.55478 | 1505 ft | 205 kts | 117° |
| 2026-05-04 06:53 | 61.17902 | -150.52863 | 1499 ft | 205 kts | 109° |
| 2026-05-04 06:53 | 61.17470 | -150.50017 | 1509 ft | 209 kts | 103° |
| 2026-05-04 06:53 | 61.17152 | -150.47095 | 1511 ft | 209 kts | 98° |
| 2026-05-04 06:54 | 61.16952 | -150.44162 | 1525 ft | 202 kts | 96° |
| 2026-05-04 06:54 | 61.16802 | -150.41245 | 1494 ft | 203 kts | 93° |
| 2026-05-04 06:54 | 61.16746 | -150.38335 | 1506 ft | 205 kts | 90° |
| 2026-05-04 06:54 | 61.16739 | -150.35365 | 1500 ft | 206 kts | 89° |
| 2026-05-04 06:55 | 61.16742 | -150.32428 | 1503 ft | 205 kts | 89° |
| 2026-05-04 06:55 | 61.16746 | -150.29448 | 1502 ft | 206 kts | 89° |
| 2026-05-04 06:55 | 61.16751 | -150.26472 | 1489 ft | 206 kts | 89° |
| 2026-05-04 06:55 | 61.16754 | -150.23601 | 1477 ft | 194 kts | 89° |
| 2026-05-04 06:56 | 61.16757 | -150.20894 | 1501 ft | 181 kts | 89° |
| 2026-05-04 06:57 | 61.16778 | -150.05204 | 245 ft | 135 kts | 92° |
| 2026-05-04 06:58 | 61.16782 | -150.03259 | 151 ft | 132 kts | 91° |
| 2026-05-04 06:58 | 61.16785 | -150.01524 | 130 ft | 104 kts | 90° |
| 2026-05-04 06:58 | 61.16787 | -150.00263 | 128 ft | 76 kts | 89° |
| 2026-05-04 06:58 | 61.16895 | -149.99426 | 123 ft | 36 kts | 41° |
| 2026-05-04 06:59 | 61.17099 | -149.99123 | 125 ft | 30 kts | 27° |
| 2026-05-04 06:59 | 61.17295 | -149.99191 | 121 ft | 33 kts | 334° |
| 2026-05-04 06:59 | 61.17459 | -149.99294 | 118 ft | 0 kts | 340° |